Time;durP1;ratioP1;P1;durP2;ratioP2;P2;SDS_P1;SDS_P2;PMS_P1;PMS_P2;Temp;Humidity;BMP_temperature;BMP_pressure;BME280_temperature;BME280_humidity;BME280_pressure;Samples;Min_cycle;Max_cycle;Signal;HPM_P1;HPM_P2
2021/06/26 00:00:27;;;;;;;;;;;;;;;;;;5050657;28;20349;-64
2021/06/26 00:02:54;;;;;;;;;;;;;;;;;;5051129;28;19979;-64
2021/06/26 00:05:21;;;;;;;;;;;;;;;;;;5051590;28;19925;-66
2021/06/26 00:07:48;;;;;;;;;;;;;;;;;;5051343;28;19931;-65
2021/06/26 00:10:15;;;;;;;;;;;;;;;;;;5051397;28;19948;-65
2021/06/26 00:12:42;;;;;;;;;;;;;;;;;;5051367;28;19924;-66
2021/06/26 00:15:08;;;;;;;;;;;;;;;;;;5051763;28;20432;-65
2021/06/26 00:17:36;;;;;;;;;;;;;;;;;;5051508;28;19925;-64
2021/06/26 00:20:03;;;;;;;;;;;;;;;;;;5051161;28;20300;-64
2021/06/26 00:22:30;;;;;;;;;;;;;;;;;;5051562;28;20015;-64
2021/06/26 00:24:56;;;;;;;;;;;;;;;;;;5051419;28;19947;-65
2021/06/26 00:27:24;;;;;;;;;;;;;;;;;;5051413;28;19925;-64
2021/06/26 00:29:50;;;;;;;;;;;;;;;;;;5050872;28;20011;-65
2021/06/26 00:32:17;;;;;;;;;;;;;;;;;;5051768;28;19925;-64
2021/06/26 00:34:44;;;;;;;;;;;;;;;;;;5051682;28;20311;-64
2021/06/26 00:37:11;;;;;;;;;;;;;;;;;;5051846;28;20416;-65
2021/06/26 00:39:38;;;;;;;;;;;;;;;;;;5051250;28;20016;-63
2021/06/26 00:42:05;;;;;;;;;;;;;;;;;;5051137;28;20007;-63
2021/06/26 00:44:33;;;;;;;;;;;;;;;;;;5051297;28;20381;-65
2021/06/26 00:47:00;;;;;;;;;;;;;;;;;;5051406;28;19933;-65
2021/06/26 00:49:27;;;;;;;;;;;;;;;;;;5051168;28;19931;-65
2021/06/26 00:51:54;;;;;;;;;;;;;;;;;;5053081;28;20315;-64
2021/06/26 00:54:20;;;;;;;;;;;;;;;;;;5055647;28;19925;-64
2021/06/26 00:56:47;;;;;;;;;;;;;;;;;;5055175;28;19925;-65
2021/06/26 00:59:15;;;;;;;;;;;;;;;;;;5055370;28;19925;-65
2021/06/26 01:01:42;;;;;;;;;;;;;;;;;;5055108;28;19932;-66
2021/06/26 01:04:09;;;;;;;;;;;;;;;;;;5055061;28;19978;-65
2021/06/26 01:06:36;;;;;;;;;;;;;;;;;;5055017;28;19924;-65
2021/06/26 01:09:03;;;;;;;;;;;;;;;;;;5054685;28;19929;-65
2021/06/26 01:11:30;;;;;;;;;;;;;;;;;;5054916;28;19929;-64
2021/06/26 01:13:56;;;;;;;;;;;;;;;;;;5055285;28;19932;-65
2021/06/26 01:16:23;;;;;;;;;;;;;;;;;;5054978;28;19932;-64
2021/06/26 01:18:50;;;;;;;;;;;;;;;;;;5054607;28;19929;-65
2021/06/26 01:21:17;;;;;;;;;;;;;;;;;;5054368;28;19931;-64
2021/06/26 01:23:46;;;;;;;;;;;;;;;;;;5054367;28;20381;-64
2021/06/26 01:26:13;;;;;;;;;;;;;;;;;;5054313;28;19925;-64
2021/06/26 01:28:40;;;;;;;;;;;;;;;;;;5054314;28;19925;-64
2021/06/26 01:31:07;;;;;;;;;;;;;;;;;;5053706;28;20300;-64
2021/06/26 01:33:34;;;;;;;;;;;;;;;;;;5054420;28;19948;-64
2021/06/26 01:36:01;;;;;;;;;;;;;;;;;;5054098;28;19925;-64
2021/06/26 01:38:28;;;;;;;;;;;;;;;;;;5054113;28;19929;-64
2021/06/26 01:40:55;;;;;;;;;;;;;;;;;;5054085;28;19925;-64
2021/06/26 01:43:22;;;;;;;;;;;;;;;;;;5054090;28;19940;-64
2021/06/26 01:45:49;;;;;;;;;;;;;;;;;;5054351;28;19925;-64
2021/06/26 01:48:16;;;;;;;;;;;;;;;;;;5053960;28;19947;-65
2021/06/26 01:50:43;;;;;;;;;;;;;;;;;;5053663;28;19924;-64
2021/06/26 01:53:10;;;;;;;;;;;;;;;;;;5054019;28;19929;-64
2021/06/26 01:55:37;;;;;;;;;;;;;;;;;;5054023;28;19957;-64
2021/06/26 01:58:04;;;;;;;;;;;;;;;;;;5053639;28;19925;-65
2021/06/26 02:00:31;;;;;;;;;;;;;;;;;;5053843;28;19924;-64
2021/06/26 02:02:57;;;;;;;;;;;;;;;;;;5053120;28;19925;-64
2021/06/26 02:05:25;;;;;;;;;;;;;;;;;;5053598;28;19925;-64
2021/06/26 02:07:52;;;;;;;;;;;;;;;;;;5053826;28;19929;-64
2021/06/26 02:10:19;;;;;;;;;;;;;;;;;;5053412;28;20370;-64
2021/06/26 02:12:46;;;;;;;;;;;;;;;;;;5053808;28;19951;-64
2021/06/26 02:15:13;;;;;;;;;;;;;;;;;;5053367;28;19986;-64
2021/06/26 02:17:40;;;;;;;;;;;;;;;;;;5053395;28;19929;-64
2021/06/26 02:20:07;;;;;;;;;;;;;;;;;;5053344;28;19970;-64
2021/06/26 02:22:34;;;;;;;;;;;;;;;;;;5054185;28;19925;-64
2021/06/26 02:25:05;;;;;;;;;;;;;;;;;;5054321;28;19924;-64
2021/06/26 02:27:32;;;;;;;;;;;;;;;;;;5053686;28;19925;-64
2021/06/26 02:29:59;;;;;;;;;;;;;;;;;;5053017;28;20454;-64
2021/06/26 02:32:26;;;;;;;;;;;;;;;;;;5054009;28;19932;-64
2021/06/26 02:34:53;;;;;;;;;;;;;;;;;;5056051;28;19924;-64
2021/06/26 02:37:20;;;;;;;;;;;;;;;;;;5053280;28;20016;-64
2021/06/26 02:39:47;;;;;;;;;;;;;;;;;;5053053;28;20032;-64
2021/06/26 02:42:14;;;;;;;;;;;;;;;;;;5053070;28;20377;-63
2021/06/26 02:44:41;;;;;;;;;;;;;;;;;;5052970;28;20332;-64
2021/06/26 02:47:08;;;;;;;;;;;;;;;;;;5053345;28;19925;-63
2021/06/26 02:49:35;;;;;;;;;;;;;;;;;;5052920;28;20195;-64
2021/06/26 02:52:02;;;;;;;;;;;;;;;;;;5053502;28;19929;-63
2021/06/26 02:54:29;;;;;;;;;;;;;;;;;;5052951;28;19925;-64
2021/06/26 02:56:56;;;;;;;;;;;;;;;;;;5052910;28;19925;-63
2021/06/26 02:59:25;;;;;;;;;;;;;;;;;;5052294;28;20307;-63
2021/06/26 03:01:52;;;;;;;;;;;;;;;;;;5052666;28;19931;-63
2021/06/26 03:04:20;;;;;;;;;;;;;;;;;;5052931;28;19932;-64
2021/06/26 03:06:47;;;;;;;;;;;;;;;;;;5052843;28;19978;-63
2021/06/26 03:09:14;;;;;;;;;;;;;;;;;;5052639;28;19931;-64
2021/06/26 03:11:41;;;;;;;;;;;;;;;;;;5052336;28;20082;-64
2021/06/26 03:14:08;;;;;;;;;;;;;;;;;;5051953;28;20008;-64
2021/06/26 03:16:35;;;;;;;;;;;;;;;;;;5051643;28;19931;-64
2021/06/26 03:19:02;;;;;;;;;;;;;;;;;;5052325;28;20393;-64
2021/06/26 03:21:29;;;;;;;;;;;;;;;;;;5052432;28;19928;-64
2021/06/26 03:23:56;;;;;;;;;;;;;;;;;;5052202;28;19925;-64
2021/06/26 03:26:23;;;;;;;;;;;;;;;;;;5052356;28;19964;-64
2021/06/26 03:28:50;;;;;;;;;;;;;;;;;;5051906;28;20646;-64
2021/06/26 03:31:17;;;;;;;;;;;;;;;;;;5069446;22;20388;-71
2021/06/26 03:33:45;;;;;;;;;;;;;;;;;;5057802;28;19967;-72
2021/06/26 03:36:12;;;;;;;;;;;;;;;;;;5057692;28;19970;-71
2021/06/26 03:38:39;;;;;;;;;;;;;;;;;;5057859;28;20020;-71
2021/06/26 03:41:06;;;;;;;;;;;;;;;;;;5056137;28;20305;-71
2021/06/26 03:43:33;;;;;;;;;;;;;;;;;;5057505;28;20007;-71
2021/06/26 03:46:00;;;;;;;;;;;;;;;;;;5057545;28;19924;-71
2021/06/26 03:48:27;;;;;;;;;;;;;;;;;;5057132;28;20001;-71
2021/06/26 03:50:56;;;;;;;;;;;;;;;;;;5057699;28;19952;-71
2021/06/26 03:53:23;;;;;;;;;;;;;;;;;;5057434;28;19925;-71
2021/06/26 03:55:52;;;;;;;;;;;;;;;;;;5056847;28;19948;-71
2021/06/26 03:58:19;;;;;;;;;;;;;;;;;;5056499;28;20012;-71
2021/06/26 04:00:46;;;;;;;;;;;;;;;;;;5057262;28;19925;-71
2021/06/26 04:03:15;;;;;;;;;;;;;;;;;;5057170;28;20019;-71
2021/06/26 04:05:42;;;;;;;;;;;;;;;;;;5056651;28;20278;-71
2021/06/26 04:08:09;;;;;;;;;;;;;;;;;;5058296;28;19925;-72
2021/06/26 04:10:36;;;;;;;;;;;;;;;;;;5056643;28;19982;-72
2021/06/26 04:13:03;;;;;;;;;;;;;;;;;;5056340;28;19931;-72
2021/06/26 04:15:30;;;;;;;;;;;;;;;;;;5055860;28;19931;-72
2021/06/26 04:17:57;;;;;;;;;;;;;;;;;;5056208;28;19931;-71
2021/06/26 04:20:24;;;;;;;;;;;;;;;;;;5055273;28;20024;-71
2021/06/26 04:22:51;;;;;;;;;;;;;;;;;;5053234;28;19932;-70
2021/06/26 04:25:18;;;;;;;;;;;;;;;;;;5066659;28;20420;-72
2021/06/26 04:27:45;;;;;;;;;;;;;;;;;;5079495;28;19925;-72
2021/06/26 04:30:12;;;;;;;;;;;;;;;;;;5079265;28;19931;-72
2021/06/26 04:32:40;;;;;;;;;;;;;;;;;;5078358;28;19982;-72
2021/06/26 04:35:07;;;;;;;;;;;;;;;;;;5079323;28;19951;-72
2021/06/26 04:37:34;;;;;;;;;;;;;;;;;;5081146;28;20419;-70
2021/06/26 04:40:01;;;;;;;;;;;;;;;;;;5081199;28;19974;-71
2021/06/26 04:42:28;;;;;;;;;;;;;;;;;;5080064;28;19928;-71
2021/06/26 04:44:56;;;;;;;;;;;;;;;;;;5080257;28;19970;-70
2021/06/26 04:47:23;;;;;;;;;;;;;;;;;;5080287;28;19925;-70
2021/06/26 04:49:50;;;;;;;;;;;;;;;;;;5079930;28;19930;-71
2021/06/26 04:52:17;;;;;;;;;;;;;;;;;;5079775;28;19924;-71
2021/06/26 04:54:44;;;;;;;;;;;;;;;;;;5080242;28;19924;-71
2021/06/26 04:57:11;;;;;;;;;;;;;;;;;;5080010;28;19947;-71
2021/06/26 04:59:38;;;;;;;;;;;;;;;;;;5079668;28;19965;-71
2021/06/26 05:02:05;;;;;;;;;;;;;;;;;;5079977;28;19947;-71
2021/06/26 05:04:32;;;;;;;;;;;;;;;;;;5080538;28;19931;-70
2021/06/26 05:06:59;;;;;;;;;;;;;;;;;;5076439;28;20290;-71
2021/06/26 05:09:26;;;;;;;;;;;;;;;;;;5060685;28;19931;-70
2021/06/26 05:11:53;;;;;;;;;;;;;;;;;;5061283;28;19924;-71
2021/06/26 05:14:20;;;;;;;;;;;;;;;;;;5061081;28;20016;-71
2021/06/26 05:16:47;;;;;;;;;;;;;;;;;;5059865;28;20361;-71
2021/06/26 05:19:14;;;;;;;;;;;;;;;;;;5059347;28;20540;-71
2021/06/26 05:21:43;;;;;;;;;;;;;;;;;;5059473;28;19931;-72
2021/06/26 05:24:12;;;;;;;;;;;;;;;;;;5060265;28;19931;-71
2021/06/26 05:26:39;;;;;;;;;;;;;;;;;;5060805;28;19972;-71
2021/06/26 05:29:06;;;;;;;;;;;;;;;;;;5060727;28;20027;-71
2021/06/26 05:31:33;;;;;;;;;;;;;;;;;;5063322;28;20375;-71
2021/06/26 05:34:00;;;;;;;;;;;;;;;;;;5059559;28;19925;-72
2021/06/26 05:36:27;;;;;;;;;;;;;;;;;;5058831;28;20385;-71
2021/06/26 05:38:54;;;;;;;;;;;;;;;;;;5057084;28;19925;-71
2021/06/26 05:41:21;;;;;;;;;;;;;;;;;;5058528;28;20023;-71
2021/06/26 05:43:48;;;;;;;;;;;;;;;;;;5058917;28;20304;-71
2021/06/26 05:46:15;;;;;;;;;;;;;;;;;;5057871;28;20376;-71
2021/06/26 05:48:42;;;;;;;;;;;;;;;;;;5059049;28;20007;-71
2021/06/26 05:51:14;;;;;;;;;;;;;;;;;;5060251;28;19925;-71
2021/06/26 05:53:41;;;;;;;;;;;;;;;;;;5059417;28;20054;-71
2021/06/26 05:56:08;;;;;;;;;;;;;;;;;;5060146;28;19936;-71
2021/06/26 05:58:36;;;;;;;;;;;;;;;;;;5058730;28;20008;-71
2021/06/26 06:01:03;;;;;;;;;;;;;;;;;;5057154;28;19928;-72
2021/06/26 06:03:30;;;;;;;;;;;;;;;;;;5057842;28;19925;-72
2021/06/26 06:05:57;;;;;;;;;;;;;;;;;;5058895;28;19964;-71
2021/06/26 06:08:25;;;;;;;;;;;;;;;;;;5058556;28;20299;-70
2021/06/26 06:10:52;;;;;;;;;;;;;;;;;;5055334;28;20443;-71
2021/06/26 06:13:18;;;;;;;;;;;;;;;;;;5055314;28;19936;-71
2021/06/26 06:15:45;;;;;;;;;;;;;;;;;;5066201;28;19968;-71
2021/06/26 06:18:12;;;;;;;;;;;;;;;;;;5063101;28;19932;-71
2021/06/26 06:20:39;;;;;;;;;;;;;;;;;;5056015;28;20011;-71
2021/06/26 06:23:06;;;;;;;;;;;;;;;;;;5057407;28;19924;-71
2021/06/26 06:25:33;;;;;;;;;;;;;;;;;;5070601;28;19924;-71
2021/06/26 06:28:01;;;;;;;;;;;;;;;;;;5075819;28;19929;-71
2021/06/26 06:30:28;;;;;;;;;;;;;;;;;;5073641;28;20007;-71
2021/06/26 06:32:55;;;;;;;;;;;;;;;;;;5073967;28;20020;-71
2021/06/26 06:35:24;;;;;;;;;;;;;;;;;;5074929;28;20011;-71
2021/06/26 06:37:51;;;;;;;;;;;;;;;;;;5075001;28;19932;-71
2021/06/26 06:40:18;;;;;;;;;;;;;;;;;;5075739;28;20046;-72
2021/06/26 06:42:45;;;;;;;;;;;;;;;;;;5076200;28;20307;-72
2021/06/26 06:45:12;;;;;;;;;;;;;;;;;;5076546;28;19931;-72
2021/06/26 06:47:39;;;;;;;;;;;;;;;;;;5075806;28;19935;-72
2021/06/26 06:50:06;;;;;;;;;;;;;;;;;;5073808;28;20292;-71
2021/06/26 06:52:32;;;;;;;;;;;;;;;;;;5073858;28;20373;-73
2021/06/26 06:54:59;;;;;;;;;;;;;;;;;;5074881;28;19925;-72
2021/06/26 06:57:26;;;;;;;;;;;;;;;;;;5075294;28;19924;-72
2021/06/26 06:59:53;;;;;;;;;;;;;;;;;;5076145;28;19924;-72
2021/06/26 07:02:20;;;;;;;;;;;;;;;;;;5081687;28;19930;-72
2021/06/26 07:04:47;;;;;;;;;;;;;;;;;;5076486;28;19931;-72
2021/06/26 07:07:14;;;;;;;;;;;;;;;;;;5072430;28;19925;-71
2021/06/26 07:09:41;;;;;;;;;;;;;;;;;;5056051;28;20011;-70
2021/06/26 07:12:08;;;;;;;;;;;;;;;;;;5057172;28;20388;-71
2021/06/26 07:14:35;;;;;;;;;;;;;;;;;;5056896;28;20007;-71
2021/06/26 07:17:02;;;;;;;;;;;;;;;;;;5055506;28;20016;-71
2021/06/26 07:19:29;;;;;;;;;;;;;;;;;;5056921;28;20345;-72
2021/06/26 07:21:56;;;;;;;;;;;;;;;;;;5056788;28;19925;-71
2021/06/26 07:24:23;;;;;;;;;;;;;;;;;;5060197;28;19924;-70
2021/06/26 07:26:50;;;;;;;;;;;;;;;;;;5076361;28;19924;-70
2021/06/26 07:29:17;;;;;;;;;;;;;;;;;;5075973;28;19970;-71
2021/06/26 07:31:44;;;;;;;;;;;;;;;;;;5076407;28;19924;-71
2021/06/26 07:34:11;;;;;;;;;;;;;;;;;;5075062;28;19924;-71
2021/06/26 07:36:38;;;;;;;;;;;;;;;;;;5074753;28;19925;-71
2021/06/26 07:39:05;;;;;;;;;;;;;;;;;;5074829;28;19932;-70
2021/06/26 07:41:32;;;;;;;;;;;;;;;;;;5074687;28;20023;-70
2021/06/26 07:43:59;;;;;;;;;;;;;;;;;;5075023;28;19929;-71
2021/06/26 07:46:26;;;;;;;;;;;;;;;;;;5076022;28;20011;-72
2021/06/26 07:48:53;;;;;;;;;;;;;;;;;;5075385;28;19936;-72
2021/06/26 07:51:20;;;;;;;;;;;;;;;;;;5076734;28;19929;-73
2021/06/26 07:53:49;;;;;;;;;;;;;;;;;;5073359;28;19925;-70
2021/06/26 07:56:16;;;;;;;;;;;;;;;;;;5072310;28;19932;-72
2021/06/26 07:58:43;;;;;;;;;;;;;;;;;;5071781;28;20462;-71
2021/06/26 08:01:10;;;;;;;;;;;;;;;;;;5070769;28;20308;-72
2021/06/26 08:03:37;;;;;;;;;;;;;;;;;;5071613;28;20418;-72
2021/06/26 08:06:04;;;;;;;;;;;;;;;;;;5071883;28;20019;-70
2021/06/26 08:08:31;;;;;;;;;;;;;;;;;;5057677;28;20024;-71
2021/06/26 08:10:58;;;;;;;;;;;;;;;;;;5053256;28;19925;-71
2021/06/26 08:13:27;;;;;;;;;;;;;;;;;;5053178;28;19925;-70
2021/06/26 08:15:54;;;;;;;;;;;;;;;;;;5053906;28;19931;-70
2021/06/26 08:18:21;;;;;;;;;;;;;;;;;;5052159;28;19940;-71
2021/06/26 08:20:48;;;;;;;;;;;;;;;;;;5051129;28;19925;-71
2021/06/26 08:23:17;;;;;;;;;;;;;;;;;;5051083;28;19925;-71
2021/06/26 08:25:44;;;;;;;;;;;;;;;;;;5066735;28;19931;-71
2021/06/26 08:28:13;;;;;;;;;;;;;;;;;;5071239;28;19924;-70
2021/06/26 08:30:40;;;;;;;;;;;;;;;;;;5070586;28;19925;-70
2021/06/26 08:33:07;;;;;;;;;;;;;;;;;;5071612;28;19931;-69
2021/06/26 08:35:34;;;;;;;;;;;;;;;;;;5075446;28;20133;-70
2021/06/26 08:38:01;;;;;;;;;;;;;;;;;;5073468;28;19971;-69
2021/06/26 08:40:28;;;;;;;;;;;;;;;;;;5073695;28;19924;-70
2021/06/26 08:42:56;;;;;;;;;;;;;;;;;;5071541;28;19924;-69
2021/06/26 08:45:23;;;;;;;;;;;;;;;;;;5071138;28;19928;-69
2021/06/26 08:47:50;;;;;;;;;;;;;;;;;;5071116;28;19929;-70
2021/06/26 08:50:16;;;;;;;;;;;;;;;;;;5070830;28;19925;-70
2021/06/26 08:52:43;;;;;;;;;;;;;;;;;;5070797;28;19924;-70
2021/06/26 08:55:10;;;;;;;;;;;;;;;;;;5071112;28;19925;-71
2021/06/26 08:57:37;;;;;;;;;;;;;;;;;;5070913;28;19924;-70
2021/06/26 09:00:04;;;;;;;;;;;;;;;;;;5070625;28;20444;-71
2021/06/26 09:02:31;;;;;;;;;;;;;;;;;;5071065;28;19978;-70
2021/06/26 09:04:59;;;;;;;;;;;;;;;;;;5070916;28;19973;-71
2021/06/26 09:07:26;;;;;;;;;;;;;;;;;;5063830;28;20315;-70
2021/06/26 09:09:55;;;;;;;;;;;;;;;;;;5050535;28;20384;-70
2021/06/26 09:12:22;;;;;;;;;;;;;;;;;;5051896;28;20308;-69
2021/06/26 09:14:49;;;;;;;;;;;;;;;;;;5054634;28;19932;-70
2021/06/26 09:17:18;;;;;;;;;;;;;;;;;;5054808;28;20019;-70
2021/06/26 09:19:45;;;;;;;;;;;;;;;;;;5054553;28;19991;-71
2021/06/26 09:22:12;;;;;;;;;;;;;;;;;;5060423;28;19968;-70
2021/06/26 09:24:40;;;;;;;;;;;;;;;;;;5064784;28;19964;-72
2021/06/26 09:27:07;;;;;;;;;;;;;;;;;;5076453;28;20019;-71
2021/06/26 09:29:34;;;;;;;;;;;;;;;;;;5075075;28;19972;-69
2021/06/26 09:32:01;;;;;;;;;;;;;;;;;;5088901;22;19990;-66
2021/06/26 09:34:28;;;;;;;;;;;;;;;;;;5074600;28;19975;-65
2021/06/26 09:36:55;;;;;;;;;;;;;;;;;;5074081;28;19924;-65
2021/06/26 09:39:22;;;;;;;;;;;;;;;;;;5073969;28;19925;-65
2021/06/26 09:41:49;;;;;;;;;;;;;;;;;;5074346;28;19934;-64
2021/06/26 09:44:16;;;;;;;;;;;;;;;;;;5074997;28;19924;-67
2021/06/26 09:46:43;;;;;;;;;;;;;;;;;;5074425;28;20119;-65
2021/06/26 09:49:10;;;;;;;;;;;;;;;;;;5073852;28;19928;-67
2021/06/26 09:51:37;;;;;;;;;;;;;;;;;;5073913;28;20299;-64
2021/06/26 09:54:04;;;;;;;;;;;;;;;;;;5073845;28;19975;-65
2021/06/26 09:56:31;;;;;;;;;;;;;;;;;;5074176;28;19946;-65
2021/06/26 09:58:58;;;;;;;;;;;;;;;;;;5074013;28;19931;-65
2021/06/26 10:01:25;;;;;;;;;;;;;;;;;;5073990;28;19924;-64
2021/06/26 10:03:52;;;;;;;;;;;;;;;;;;5073742;28;20343;-64
2021/06/26 10:06:20;;;;;;;;;;;;;;;;;;5073883;28;19970;-66
2021/06/26 10:08:47;;;;;;;;;;;;;;;;;;5073355;28;20014;-65
2021/06/26 10:11:14;;;;;;;;;;;;;;;;;;5073512;28;19975;-66
2021/06/26 10:13:41;;;;;;;;;;;;;;;;;;5073873;28;19931;-65
2021/06/26 10:16:08;;;;;;;;;;;;;;;;;;5073529;28;19931;-64
2021/06/26 10:18:35;;;;;;;;;;;;;;;;;;5077709;28;20015;-64
2021/06/26 10:21:02;;;;;;;;;;;;;;;;;;5081266;28;19924;-66
2021/06/26 10:23:29;;;;;;;;;;;;;;;;;;5081454;28;19924;-66
2021/06/26 10:25:56;;;;;;;;;;;;;;;;;;5076504;28;19930;-64
2021/06/26 10:28:23;;;;;;;;;;;;;;;;;;5073675;28;19931;-68
2021/06/26 10:30:50;;;;;;;;;;;;;;;;;;5073424;28;19950;-66
2021/06/26 10:33:17;;;;;;;;;;;;;;;;;;5073120;28;19940;-66
2021/06/26 10:35:44;;;;;;;;;;;;;;;;;;5073190;28;19924;-65
2021/06/26 10:38:11;;;;;;;;;;;;;;;;;;5072935;28;19934;-66
2021/06/26 10:40:38;;;;;;;;;;;;;;;;;;5073020;28;20337;-65
2021/06/26 10:43:05;;;;;;;;;;;;;;;;;;5073172;28;19924;-65
2021/06/26 10:45:32;;;;;;;;;;;;;;;;;;5073026;28;20011;-65
2021/06/26 10:47:59;;;;;;;;;;;;;;;;;;5072920;28;20023;-65
2021/06/26 10:50:26;;;;;;;;;;;;;;;;;;5072608;28;19956;-67
2021/06/26 10:52:53;;;;;;;;;;;;;;;;;;5072934;28;19983;-65
2021/06/26 10:55:20;;;;;;;;;;;;;;;;;;5073178;28;19928;-65
2021/06/26 10:57:47;;;;;;;;;;;;;;;;;;5072889;28;19930;-66
2021/06/26 11:00:14;;;;;;;;;;;;;;;;;;5072171;28;20077;-68
2021/06/26 11:02:41;;;;;;;;;;;;;;;;;;5072658;28;20303;-66
2021/06/26 11:05:08;;;;;;;;;;;;;;;;;;5072233;28;19924;-66
2021/06/26 11:07:35;;;;;;;;;;;;;;;;;;5064417;28;19924;-65
2021/06/26 11:10:02;;;;;;;;;;;;;;;;;;5052220;28;19924;-65
2021/06/26 11:12:29;;;;;;;;;;;;;;;;;;5052316;28;20412;-65
2021/06/26 11:14:56;;;;;;;;;;;;;;;;;;5052780;28;20311;-66
2021/06/26 11:17:23;;;;;;;;;;;;;;;;;;5052173;28;19924;-65
2021/06/26 11:19:50;;;;;;;;;;;;;;;;;;5052484;28;19931;-66
2021/06/26 11:22:17;;;;;;;;;;;;;;;;;;5052415;28;19971;-64
2021/06/26 11:24:44;;;;;;;;;;;;;;;;;;5059326;28;20019;-66
2021/06/26 11:27:13;;;;;;;;;;;;;;;;;;5072047;28;20025;-66
2021/06/26 11:29:40;;;;;;;;;;;;;;;;;;5071964;28;19929;-66
2021/06/26 11:32:07;;;;;;;;;;;;;;;;;;5071584;28;19924;-65
2021/06/26 11:34:34;;;;;;;;;;;;;;;;;;5072222;28;19932;-66
2021/06/26 11:37:01;;;;;;;;;;;;;;;;;;5071265;28;20390;-67
2021/06/26 11:39:28;;;;;;;;;;;;;;;;;;5071616;28;19931;-67
2021/06/26 11:41:55;;;;;;;;;;;;;;;;;;5071912;28;20015;-64
2021/06/26 11:44:22;;;;;;;;;;;;;;;;;;5071710;28;19924;-64
2021/06/26 11:46:49;;;;;;;;;;;;;;;;;;5071842;28;20643;-66
2021/06/26 11:49:16;;;;;;;;;;;;;;;;;;5071633;28;19931;-67
2021/06/26 11:51:43;;;;;;;;;;;;;;;;;;5071982;28;19924;-64
2021/06/26 11:54:10;;;;;;;;;;;;;;;;;;5071616;28;19928;-66
2021/06/26 11:56:37;;;;;;;;;;;;;;;;;;5071669;28;20408;-65
2021/06/26 11:59:04;;;;;;;;;;;;;;;;;;5071562;28;19931;-65
2021/06/26 12:01:32;;;;;;;;;;;;;;;;;;5073422;28;19925;-65
2021/06/26 12:03:59;;;;;;;;;;;;;;;;;;5072179;28;19924;-65
2021/06/26 12:06:26;;;;;;;;;;;;;;;;;;5071663;28;20034;-66
2021/06/26 12:08:53;;;;;;;;;;;;;;;;;;5052651;28;19931;-65
2021/06/26 12:11:20;;;;;;;;;;;;;;;;;;5051185;28;19958;-65
2021/06/26 12:13:47;;;;;;;;;;;;;;;;;;5051220;28;19931;-64
2021/06/26 12:16:14;;;;;;;;;;;;;;;;;;5051468;28;20369;-66
2021/06/26 12:18:41;;;;;;;;;;;;;;;;;;5051641;28;19925;-66
2021/06/26 12:21:08;;;;;;;;;;;;;;;;;;5051232;28;20019;-66
2021/06/26 12:23:35;;;;;;;;;;;;;;;;;;5051549;28;19964;-66
2021/06/26 12:26:02;;;;;;;;;;;;;;;;;;5069238;28;19930;-65
2021/06/26 12:28:29;;;;;;;;;;;;;;;;;;5071235;28;19931;-64
2021/06/26 12:30:56;;;;;;;;;;;;;;;;;;5071265;28;19932;-65
2021/06/26 12:33:23;;;;;;;;;;;;;;;;;;5071803;28;19929;-66
2021/06/26 12:35:50;;;;;;;;;;;;;;;;;;5071594;28;19929;-67
2021/06/26 12:38:17;;;;;;;;;;;;;;;;;;5071431;28;20328;-67
2021/06/26 12:40:44;;;;;;;;;;;;;;;;;;5070992;28;19924;-65
2021/06/26 12:43:12;;;;;;;;;;;;;;;;;;5071443;28;20330;-67
2021/06/26 12:45:39;;;;;;;;;;;;;;;;;;5071325;28;19978;-65
2021/06/26 12:48:10;;;;;;;;;;;;;;;;;;5073579;28;19924;-65
2021/06/26 12:50:37;;;;;;;;;;;;;;;;;;5074940;28;19925;-67
2021/06/26 12:53:04;;;;;;;;;;;;;;;;;;5075185;28;20303;-65
2021/06/26 12:55:31;;;;;;;;;;;;;;;;;;5075006;28;19987;-65
2021/06/26 12:57:58;;;;;;;;;;;;;;;;;;5075211;28;20308;-66
2021/06/26 13:00:25;;;;;;;;;;;;;;;;;;5074960;28;20312;-67
2021/06/26 13:02:52;;;;;;;;;;;;;;;;;;5074849;28;19930;-67
2021/06/26 13:05:19;;;;;;;;;;;;;;;;;;5074988;28;19931;-67
2021/06/26 13:07:46;;;;;;;;;;;;;;;;;;5065054;28;19925;-67
2021/06/26 13:10:13;;;;;;;;;;;;;;;;;;5054793;28;19929;-65
2021/06/26 13:12:40;;;;;;;;;;;;;;;;;;5054807;28;20371;-66
2021/06/26 13:15:07;;;;;;;;;;;;;;;;;;5054683;28;19925;-65
2021/06/26 13:17:35;;;;;;;;;;;;;;;;;;5054769;28;19925;-65
2021/06/26 13:20:02;;;;;;;;;;;;;;;;;;5054311;28;19925;-65
2021/06/26 13:22:31;;;;;;;;;;;;;;;;;;5054559;28;19925;-66
2021/06/26 13:24:58;;;;;;;;;;;;;;;;;;5063486;28;20352;-66
2021/06/26 13:27:25;;;;;;;;;;;;;;;;;;5074736;28;19981;-66
2021/06/26 13:29:52;;;;;;;;;;;;;;;;;;5074008;28;19932;-65
2021/06/26 13:32:19;;;;;;;;;;;;;;;;;;5074839;28;20003;-66
2021/06/26 13:34:46;;;;;;;;;;;;;;;;;;5074281;28;19924;-66
2021/06/26 13:37:13;;;;;;;;;;;;;;;;;;5073343;28;19924;-65
2021/06/26 13:39:40;;;;;;;;;;;;;;;;;;5073389;28;20411;-64
2021/06/26 13:42:07;;;;;;;;;;;;;;;;;;5072521;28;19931;-65
2021/06/26 13:44:34;;;;;;;;;;;;;;;;;;5074329;28;20315;-67
2021/06/26 13:47:01;;;;;;;;;;;;;;;;;;5073875;28;19929;-65
2021/06/26 13:49:28;;;;;;;;;;;;;;;;;;5073296;28;19929;-65
2021/06/26 13:51:55;;;;;;;;;;;;;;;;;;5074544;28;19938;-64
2021/06/26 13:54:22;;;;;;;;;;;;;;;;;;5074174;28;19976;-67
2021/06/26 13:56:49;;;;;;;;;;;;;;;;;;5074334;28;19932;-65
2021/06/26 13:59:16;;;;;;;;;;;;;;;;;;5072939;28;20015;-65
2021/06/26 14:01:43;;;;;;;;;;;;;;;;;;5074246;28;19971;-65
2021/06/26 14:04:10;;;;;;;;;;;;;;;;;;5073835;28;19924;-67
2021/06/26 14:06:37;;;;;;;;;;;;;;;;;;5074131;28;19975;-65
2021/06/26 14:09:06;;;;;;;;;;;;;;;;;;5053805;28;19925;-66
2021/06/26 14:11:33;;;;;;;;;;;;;;;;;;5053945;28;19955;-65
2021/06/26 14:14:00;;;;;;;;;;;;;;;;;;5054011;28;20020;-66
2021/06/26 14:16:27;;;;;;;;;;;;;;;;;;5053494;28;20415;-66
2021/06/26 14:18:54;;;;;;;;;;;;;;;;;;5053808;28;19968;-64
2021/06/26 14:21:21;;;;;;;;;;;;;;;;;;5053181;28;19929;-66
2021/06/26 14:23:48;;;;;;;;;;;;;;;;;;5053570;28;19925;-66
2021/06/26 14:26:16;;;;;;;;;;;;;;;;;;5072779;28;19931;-66
2021/06/26 14:28:43;;;;;;;;;;;;;;;;;;5073420;28;19932;-65
2021/06/26 14:31:10;;;;;;;;;;;;;;;;;;5072892;28;19924;-67
2021/06/26 14:33:37;;;;;;;;;;;;;;;;;;5073395;28;20385;-64
2021/06/26 14:36:04;;;;;;;;;;;;;;;;;;5073538;28;19925;-64
2021/06/26 14:38:32;;;;;;;;;;;;;;;;;;5073376;28;19931;-67
2021/06/26 14:40:59;;;;;;;;;;;;;;;;;;5073281;28;20346;-67
2021/06/26 14:43:30;;;;;;;;;;;;;;;;;;5072967;28;20019;-65
2021/06/26 14:45:57;;;;;;;;;;;;;;;;;;5073570;28;19928;-66
2021/06/26 14:48:24;;;;;;;;;;;;;;;;;;5073335;28;19935;-65
2021/06/26 14:50:51;;;;;;;;;;;;;;;;;;5073057;28;20392;-65
2021/06/26 14:53:18;;;;;;;;;;;;;;;;;;5073128;28;20480;-66
2021/06/26 14:55:52;;;;;;;;;;;;;;;;;;5072847;28;19931;-64
2021/06/26 14:58:19;;;;;;;;;;;;;;;;;;5072821;28;19959;-64
2021/06/26 15:00:46;;;;;;;;;;;;;;;;;;5072472;28;20000;-64
2021/06/26 15:03:13;;;;;;;;;;;;;;;;;;5072789;28;20406;-64
2021/06/26 15:05:41;;;;;;;;;;;;;;;;;;5072883;28;19931;-64
2021/06/26 15:08:08;;;;;;;;;;;;;;;;;;5060773;28;19925;-64
2021/06/26 15:10:35;;;;;;;;;;;;;;;;;;5052208;28;20012;-64
2021/06/26 15:13:02;;;;;;;;;;;;;;;;;;5052592;28;20399;-64
2021/06/26 15:15:29;;;;;;;;;;;;;;;;;;5052774;28;19925;-64
2021/06/26 15:17:57;;;;;;;;;;;;;;;;;;5052515;28;19925;-64
2021/06/26 15:20:24;;;;;;;;;;;;;;;;;;5052322;28;19999;-63
2021/06/26 15:22:51;;;;;;;;;;;;;;;;;;5052328;28;20020;-64
2021/06/26 15:25:18;;;;;;;;;;;;;;;;;;5065605;28;20315;-66
2021/06/26 15:27:45;;;;;;;;;;;;;;;;;;5072719;28;20020;-64
2021/06/26 15:30:14;;;;;;;;;;;;;;;;;;5072287;28;20355;-65
2021/06/26 15:32:41;;;;;;;;;;;;;;;;;;5072426;28;19931;-65
2021/06/26 15:35:08;;;;;;;;;;;;;;;;;;5072086;28;20308;-64
2021/06/26 15:37:35;;;;;;;;;;;;;;;;;;5072168;28;19924;-64
2021/06/26 15:40:02;;;;;;;;;;;;;;;;;;5071566;28;19924;-64
2021/06/26 15:42:29;;;;;;;;;;;;;;;;;;5071864;28;19925;-64
2021/06/26 15:44:56;;;;;;;;;;;;;;;;;;5072010;28;19925;-64
2021/06/26 15:47:23;;;;;;;;;;;;;;;;;;5071968;28;19951;-64
2021/06/26 15:49:50;;;;;;;;;;;;;;;;;;5071703;28;20381;-64
2021/06/26 15:52:17;;;;;;;;;;;;;;;;;;5074693;28;19924;-64
2021/06/26 15:54:44;;;;;;;;;;;;;;;;;;5078454;28;19935;-64
2021/06/26 15:57:11;;;;;;;;;;;;;;;;;;5079374;28;19984;-64
2021/06/26 15:59:38;;;;;;;;;;;;;;;;;;5076161;28;20331;-63
2021/06/26 16:02:04;;;;;;;;;;;;;;;;;;5071658;28;19931;-63
2021/06/26 16:04:31;;;;;;;;;;;;;;;;;;5071683;28;20023;-63
2021/06/26 16:06:58;;;;;;;;;;;;;;;;;;5068172;28;19924;-63
2021/06/26 16:09:25;;;;;;;;;;;;;;;;;;5051519;28;19931;-64
2021/06/26 16:11:52;;;;;;;;;;;;;;;;;;5051300;28;20389;-64
2021/06/26 16:14:19;;;;;;;;;;;;;;;;;;5051391;28;19925;-64
2021/06/26 16:16:46;;;;;;;;;;;;;;;;;;5051429;28;19956;-64
2021/06/26 16:19:13;;;;;;;;;;;;;;;;;;5051121;28;19935;-64
2021/06/26 16:21:40;;;;;;;;;;;;;;;;;;5050773;28;19925;-64
2021/06/26 16:24:07;;;;;;;;;;;;;;;;;;5053376;28;19932;-64
2021/06/26 16:26:34;;;;;;;;;;;;;;;;;;5071547;28;20400;-64
2021/06/26 16:29:01;;;;;;;;;;;;;;;;;;5071268;28;19925;-64
2021/06/26 16:31:28;;;;;;;;;;;;;;;;;;5071147;28;19925;-64
2021/06/26 16:33:55;;;;;;;;;;;;;;;;;;5071454;28;19930;-65
2021/06/26 16:36:21;;;;;;;;;;;;;;;;;;5071337;28;20020;-64
2021/06/26 16:38:53;;;;;;;;;;;;;;;;;;5071669;28;19931;-64
2021/06/26 16:41:20;;;;;;;;;;;;;;;;;;5070944;28;19929;-64
2021/06/26 16:43:47;;;;;;;;;;;;;;;;;;5071316;28;19931;-65